sensor_id;sensor_type;location;lat;lon;timestamp;P1;durP1;ratioP1;P2;durP2;ratioP2
38130;SDS011;23947;51.894;4.622;2022-12-18T00:01:58;102.87;;;34.37;;
38130;SDS011;23947;51.894;4.622;2022-12-18T00:04:24;107.73;;;36.03;;
38130;SDS011;23947;51.894;4.622;2022-12-18T00:06:51;102.80;;;35.77;;
38130;SDS011;23947;51.894;4.622;2022-12-18T00:09:17;98.07;;;32.53;;
38130;SDS011;23947;51.894;4.622;2022-12-18T00:11:43;105.43;;;34.80;;
38130;SDS011;23947;51.894;4.622;2022-12-18T00:14:09;103.07;;;34.03;;
38130;SDS011;23947;51.894;4.622;2022-12-18T00:19:04;107.17;;;34.13;;
38130;SDS011;23947;51.894;4.622;2022-12-18T00:21:31;98.90;;;34.03;;
38130;SDS011;23947;51.894;4.622;2022-12-18T00:23:58;106.60;;;34.90;;
38130;SDS011;23947;51.894;4.622;2022-12-18T00:26:28;100.87;;;33.57;;
38130;SDS011;23947;51.894;4.622;2022-12-18T00:28:59;107.80;;;34.87;;
38130;SDS011;23947;51.894;4.622;2022-12-18T00:31:30;99.97;;;33.03;;
38130;SDS011;23947;51.894;4.622;2022-12-18T00:33:56;98.63;;;33.77;;
38130;SDS011;23947;51.894;4.622;2022-12-18T00:36:27;141.17;;;65.00;;
38130;SDS011;23947;51.894;4.622;2022-12-18T00:38:55;101.90;;;36.13;;
38130;SDS011;23947;51.894;4.622;2022-12-18T00:41:22;100.23;;;34.07;;
38130;SDS011;23947;51.894;4.622;2022-12-18T00:44:09;99.27;;;34.53;;
38130;SDS011;23947;51.894;4.622;2022-12-18T00:46:37;98.67;;;34.73;;
38130;SDS011;23947;51.894;4.622;2022-12-18T00:49:03;101.40;;;34.23;;
38130;SDS011;23947;51.894;4.622;2022-12-18T00:51:29;100.57;;;34.50;;
38130;SDS011;23947;51.894;4.622;2022-12-18T00:53:54;94.47;;;34.27;;
38130;SDS011;23947;51.894;4.622;2022-12-18T00:56:20;85.33;;;31.33;;
38130;SDS011;23947;51.894;4.622;2022-12-18T00:58:46;87.03;;;32.30;;
38130;SDS011;23947;51.894;4.622;2022-12-18T01:01:13;87.30;;;32.33;;
38130;SDS011;23947;51.894;4.622;2022-12-18T01:03:38;88.17;;;30.80;;
38130;SDS011;23947;51.894;4.622;2022-12-18T01:06:08;91.17;;;32.50;;
38130;SDS011;23947;51.894;4.622;2022-12-18T01:08:36;92.23;;;31.97;;
38130;SDS011;23947;51.894;4.622;2022-12-18T01:11:10;95.73;;;34.70;;
38130;SDS011;23947;51.894;4.622;2022-12-18T01:13:39;87.37;;;32.40;;
38130;SDS011;23947;51.894;4.622;2022-12-18T01:16:05;93.97;;;33.30;;
38130;SDS011;23947;51.894;4.622;2022-12-18T01:18:31;103.23;;;35.33;;
38130;SDS011;23947;51.894;4.622;2022-12-18T01:20:56;101.03;;;34.30;;
38130;SDS011;23947;51.894;4.622;2022-12-18T01:23:22;114.57;;;38.30;;
38130;SDS011;23947;51.894;4.622;2022-12-18T01:25:48;109.87;;;35.60;;
38130;SDS011;23947;51.894;4.622;2022-12-18T01:28:14;105.87;;;35.80;;
38130;SDS011;23947;51.894;4.622;2022-12-18T01:30:39;100.97;;;35.43;;
38130;SDS011;23947;51.894;4.622;2022-12-18T01:33:05;91.47;;;33.57;;
38130;SDS011;23947;51.894;4.622;2022-12-18T01:35:33;90.55;;;32.40;;
38130;SDS011;23947;51.894;4.622;2022-12-18T01:38:05;90.07;;;31.43;;
38130;SDS011;23947;51.894;4.622;2022-12-18T01:40:32;88.17;;;32.17;;
38130;SDS011;23947;51.894;4.622;2022-12-18T01:43:00;83.40;;;31.30;;
38130;SDS011;23947;51.894;4.622;2022-12-18T01:45:27;91.85;;;32.85;;
38130;SDS011;23947;51.894;4.622;2022-12-18T01:47:56;82.20;;;29.33;;
38130;SDS011;23947;51.894;4.622;2022-12-18T01:50:34;85.13;;;30.20;;
38130;SDS011;23947;51.894;4.622;2022-12-18T01:55:47;82.20;;;31.07;;
38130;SDS011;23947;51.894;4.622;2022-12-18T01:58:19;78.13;;;30.40;;
38130;SDS011;23947;51.894;4.622;2022-12-18T02:00:50;83.03;;;30.80;;
38130;SDS011;23947;51.894;4.622;2022-12-18T02:03:16;85.72;;;32.20;;
38130;SDS011;23947;51.894;4.622;2022-12-18T02:08:33;80.43;;;30.53;;
38130;SDS011;23947;51.894;4.622;2022-12-18T02:11:14;79.45;;;29.08;;
38130;SDS011;23947;51.894;4.622;2022-12-18T02:13:53;78.43;;;28.97;;
38130;SDS011;23947;51.894;4.622;2022-12-18T02:18:58;84.23;;;29.53;;
38130;SDS011;23947;51.894;4.622;2022-12-18T02:21:43;91.37;;;31.40;;
38130;SDS011;23947;51.894;4.622;2022-12-18T02:24:32;108.43;;;31.27;;
38130;SDS011;23947;51.894;4.622;2022-12-18T02:27:13;85.33;;;31.80;;
38130;SDS011;23947;51.894;4.622;2022-12-18T02:32:17;93.87;;;29.97;;
38130;SDS011;23947;51.894;4.622;2022-12-18T02:34:53;94.37;;;30.63;;
38130;SDS011;23947;51.894;4.622;2022-12-18T02:37:21;83.18;;;30.48;;
38130;SDS011;23947;51.894;4.622;2022-12-18T02:39:50;84.57;;;28.30;;
38130;SDS011;23947;51.894;4.622;2022-12-18T02:42:22;87.87;;;29.40;;
38130;SDS011;23947;51.894;4.622;2022-12-18T02:44:52;86.57;;;30.57;;
38130;SDS011;23947;51.894;4.622;2022-12-18T02:47:23;94.83;;;31.80;;
38130;SDS011;23947;51.894;4.622;2022-12-18T02:52:50;96.53;;;32.63;;
38130;SDS011;23947;51.894;4.622;2022-12-18T02:58:05;97.57;;;31.83;;
38130;SDS011;23947;51.894;4.622;2022-12-18T03:00:41;91.53;;;31.13;;
38130;SDS011;23947;51.894;4.622;2022-12-18T03:04:09;91.13;;;31.43;;
38130;SDS011;23947;51.894;4.622;2022-12-18T03:06:13;85.38;;;29.58;;
38130;SDS011;23947;51.894;4.622;2022-12-18T03:09:10;86.70;;;29.35;;
38130;SDS011;23947;51.894;4.622;2022-12-18T03:11:41;100.10;;;30.47;;
38130;SDS011;23947;51.894;4.622;2022-12-18T03:14:30;93.10;;;29.52;;
38130;SDS011;23947;51.894;4.622;2022-12-18T03:16:59;83.95;;;29.70;;
38130;SDS011;23947;51.894;4.622;2022-12-18T03:21:55;77.03;;;27.47;;
38130;SDS011;23947;51.894;4.622;2022-12-18T03:24:24;84.63;;;27.13;;
38130;SDS011;23947;51.894;4.622;2022-12-18T03:32:07;102.30;;;37.13;;
38130;SDS011;23947;51.894;4.622;2022-12-18T03:34:38;88.50;;;32.37;;
38130;SDS011;23947;51.894;4.622;2022-12-18T03:37:05;80.38;;;28.73;;
38130;SDS011;23947;51.894;4.622;2022-12-18T03:39:33;88.77;;;30.97;;
38130;SDS011;23947;51.894;4.622;2022-12-18T03:42:11;73.77;;;27.57;;
38130;SDS011;23947;51.894;4.622;2022-12-18T03:44:51;73.70;;;27.70;;
38130;SDS011;23947;51.894;4.622;2022-12-18T03:53:42;72.63;;;25.43;;
38130;SDS011;23947;51.894;4.622;2022-12-18T03:56:16;66.20;;;26.30;;
38130;SDS011;23947;51.894;4.622;2022-12-18T03:58:46;63.92;;;25.30;;
38130;SDS011;23947;51.894;4.622;2022-12-18T04:01:17;68.27;;;25.40;;
38130;SDS011;23947;51.894;4.622;2022-12-18T04:03:48;63.87;;;25.27;;
38130;SDS011;23947;51.894;4.622;2022-12-18T04:06:15;65.70;;;25.83;;
38130;SDS011;23947;51.894;4.622;2022-12-18T04:08:42;60.83;;;24.10;;
38130;SDS011;23947;51.894;4.622;2022-12-18T04:11:09;68.37;;;25.07;;
38130;SDS011;23947;51.894;4.622;2022-12-18T04:13:35;63.57;;;25.67;;
38130;SDS011;23947;51.894;4.622;2022-12-18T04:16:02;62.33;;;23.60;;
38130;SDS011;23947;51.894;4.622;2022-12-18T04:18:28;71.70;;;28.27;;
38130;SDS011;23947;51.894;4.622;2022-12-18T04:20:54;66.50;;;26.53;;
38130;SDS011;23947;51.894;4.622;2022-12-18T04:23:21;76.00;;;31.00;;
38130;SDS011;23947;51.894;4.622;2022-12-18T04:25:47;84.37;;;37.63;;
38130;SDS011;23947;51.894;4.622;2022-12-18T04:28:13;76.07;;;30.43;;
38130;SDS011;23947;51.894;4.622;2022-12-18T04:30:41;68.63;;;27.83;;
38130;SDS011;23947;51.894;4.622;2022-12-18T04:33:10;62.87;;;24.93;;
38130;SDS011;23947;51.894;4.622;2022-12-18T04:35:37;66.07;;;24.17;;
38130;SDS011;23947;51.894;4.622;2022-12-18T04:38:05;70.60;;;26.23;;
38130;SDS011;23947;51.894;4.622;2022-12-18T04:40:36;60.40;;;23.90;;
38130;SDS011;23947;51.894;4.622;2022-12-18T04:43:03;60.53;;;24.53;;
38130;SDS011;23947;51.894;4.622;2022-12-18T04:45:29;59.43;;;23.00;;
38130;SDS011;23947;51.894;4.622;2022-12-18T04:47:57;57.40;;;22.47;;
38130;SDS011;23947;51.894;4.622;2022-12-18T04:50:23;62.87;;;23.97;;
38130;SDS011;23947;51.894;4.622;2022-12-18T04:52:51;62.00;;;24.23;;
38130;SDS011;23947;51.894;4.622;2022-12-18T04:55:21;62.17;;;23.83;;
38130;SDS011;23947;51.894;4.622;2022-12-18T04:57:46;59.53;;;23.83;;
38130;SDS011;23947;51.894;4.622;2022-12-18T05:00:13;60.80;;;24.80;;
38130;SDS011;23947;51.894;4.622;2022-12-18T05:02:39;57.20;;;22.63;;
38130;SDS011;23947;51.894;4.622;2022-12-18T05:05:04;56.93;;;23.60;;
38130;SDS011;23947;51.894;4.622;2022-12-18T05:07:30;60.40;;;23.67;;
38130;SDS011;23947;51.894;4.622;2022-12-18T05:09:56;59.13;;;23.17;;
38130;SDS011;23947;51.894;4.622;2022-12-18T05:12:22;58.53;;;22.93;;
38130;SDS011;23947;51.894;4.622;2022-12-18T05:14:50;62.63;;;23.90;;
38130;SDS011;23947;51.894;4.622;2022-12-18T05:17:16;64.83;;;24.30;;
38130;SDS011;23947;51.894;4.622;2022-12-18T05:19:41;53.20;;;21.13;;
38130;SDS011;23947;51.894;4.622;2022-12-18T05:22:10;58.40;;;22.77;;
38130;SDS011;23947;51.894;4.622;2022-12-18T05:24:36;57.83;;;22.48;;
38130;SDS011;23947;51.894;4.622;2022-12-18T05:27:02;58.67;;;21.53;;
38130;SDS011;23947;51.894;4.622;2022-12-18T05:29:28;55.33;;;22.17;;
38130;SDS011;23947;51.894;4.622;2022-12-18T05:31:54;51.07;;;19.83;;
38130;SDS011;23947;51.894;4.622;2022-12-18T05:34:20;57.27;;;22.90;;
38130;SDS011;23947;51.894;4.622;2022-12-18T05:36:46;57.37;;;22.97;;
38130;SDS011;23947;51.894;4.622;2022-12-18T05:39:14;57.07;;;22.03;;
38130;SDS011;23947;51.894;4.622;2022-12-18T05:41:41;52.27;;;20.70;;
38130;SDS011;23947;51.894;4.622;2022-12-18T05:44:06;53.77;;;21.23;;
38130;SDS011;23947;51.894;4.622;2022-12-18T05:46:32;53.90;;;22.47;;
38130;SDS011;23947;51.894;4.622;2022-12-18T05:49:01;56.07;;;22.00;;
38130;SDS011;23947;51.894;4.622;2022-12-18T05:51:27;54.17;;;21.48;;
38130;SDS011;23947;51.894;4.622;2022-12-18T05:53:52;52.50;;;20.87;;
38130;SDS011;23947;51.894;4.622;2022-12-18T05:56:19;52.13;;;21.03;;
38130;SDS011;23947;51.894;4.622;2022-12-18T05:58:47;46.50;;;20.30;;
38130;SDS011;23947;51.894;4.622;2022-12-18T06:03:43;46.50;;;19.83;;
38130;SDS011;23947;51.894;4.622;2022-12-18T06:06:13;49.27;;;21.90;;
38130;SDS011;23947;51.894;4.622;2022-12-18T06:08:39;46.53;;;19.10;;
38130;SDS011;23947;51.894;4.622;2022-12-18T06:11:05;52.27;;;20.50;;
38130;SDS011;23947;51.894;4.622;2022-12-18T06:13:30;46.07;;;19.00;;
38130;SDS011;23947;51.894;4.622;2022-12-18T06:15:56;46.10;;;19.63;;
38130;SDS011;23947;51.894;4.622;2022-12-18T06:18:23;50.77;;;19.77;;
38130;SDS011;23947;51.894;4.622;2022-12-18T06:20:55;46.20;;;19.43;;
38130;SDS011;23947;51.894;4.622;2022-12-18T06:23:22;45.77;;;18.90;;
38130;SDS011;23947;51.894;4.622;2022-12-18T06:25:48;43.10;;;18.10;;
38130;SDS011;23947;51.894;4.622;2022-12-18T06:28:14;46.27;;;18.13;;
38130;SDS011;23947;51.894;4.622;2022-12-18T06:30:40;40.17;;;17.60;;
38130;SDS011;23947;51.894;4.622;2022-12-18T06:33:08;43.80;;;17.55;;
38130;SDS011;23947;51.894;4.622;2022-12-18T06:35:34;41.80;;;18.33;;
38130;SDS011;23947;51.894;4.622;2022-12-18T06:38:00;40.00;;;17.07;;
38130;SDS011;23947;51.894;4.622;2022-12-18T06:40:27;41.47;;;18.33;;
38130;SDS011;23947;51.894;4.622;2022-12-18T06:42:52;43.67;;;17.23;;
38130;SDS011;23947;51.894;4.622;2022-12-18T06:45:18;47.60;;;18.80;;
38130;SDS011;23947;51.894;4.622;2022-12-18T06:47:44;44.53;;;17.73;;
38130;SDS011;23947;51.894;4.622;2022-12-18T06:50:09;42.33;;;16.87;;
38130;SDS011;23947;51.894;4.622;2022-12-18T06:52:35;42.53;;;16.97;;
38130;SDS011;23947;51.894;4.622;2022-12-18T06:55:01;40.47;;;17.37;;
38130;SDS011;23947;51.894;4.622;2022-12-18T06:57:28;44.13;;;17.47;;
38130;SDS011;23947;51.894;4.622;2022-12-18T06:59:53;45.03;;;18.43;;
38130;SDS011;23947;51.894;4.622;2022-12-18T07:02:19;39.80;;;16.40;;
38130;SDS011;23947;51.894;4.622;2022-12-18T07:04:44;40.13;;;16.60;;
38130;SDS011;23947;51.894;4.622;2022-12-18T07:07:10;40.43;;;16.63;;
38130;SDS011;23947;51.894;4.622;2022-12-18T07:09:36;43.60;;;16.57;;
38130;SDS011;23947;51.894;4.622;2022-12-18T07:12:01;37.77;;;15.60;;
38130;SDS011;23947;51.894;4.622;2022-12-18T07:14:27;40.07;;;15.87;;
38130;SDS011;23947;51.894;4.622;2022-12-18T07:16:53;35.37;;;15.70;;
38130;SDS011;23947;51.894;4.622;2022-12-18T07:19:19;41.40;;;16.90;;
38130;SDS011;23947;51.894;4.622;2022-12-18T07:21:44;34.83;;;15.60;;
38130;SDS011;23947;51.894;4.622;2022-12-18T07:24:10;36.97;;;15.53;;
38130;SDS011;23947;51.894;4.622;2022-12-18T07:26:36;42.90;;;16.47;;
38130;SDS011;23947;51.894;4.622;2022-12-18T07:29:02;37.97;;;17.50;;
38130;SDS011;23947;51.894;4.622;2022-12-18T07:31:27;41.43;;;16.57;;
38130;SDS011;23947;51.894;4.622;2022-12-18T07:33:53;39.37;;;16.50;;
38130;SDS011;23947;51.894;4.622;2022-12-18T07:36:19;36.63;;;15.73;;
38130;SDS011;23947;51.894;4.622;2022-12-18T07:38:48;36.90;;;15.70;;
38130;SDS011;23947;51.894;4.622;2022-12-18T07:41:14;33.97;;;14.80;;
38130;SDS011;23947;51.894;4.622;2022-12-18T07:43:41;38.23;;;15.67;;
38130;SDS011;23947;51.894;4.622;2022-12-18T07:46:07;38.80;;;16.47;;
38130;SDS011;23947;51.894;4.622;2022-12-18T07:48:33;32.97;;;14.97;;
38130;SDS011;23947;51.894;4.622;2022-12-18T07:51:00;36.47;;;15.67;;
38130;SDS011;23947;51.894;4.622;2022-12-18T07:53:26;36.57;;;15.10;;
38130;SDS011;23947;51.894;4.622;2022-12-18T07:55:56;38.73;;;16.63;;
38130;SDS011;23947;51.894;4.622;2022-12-18T07:58:43;35.70;;;15.77;;
38130;SDS011;23947;51.894;4.622;2022-12-18T08:01:10;36.47;;;15.37;;
38130;SDS011;23947;51.894;4.622;2022-12-18T08:03:36;36.93;;;15.37;;
38130;SDS011;23947;51.894;4.622;2022-12-18T08:06:04;34.33;;;15.10;;
38130;SDS011;23947;51.894;4.622;2022-12-18T08:08:31;37.70;;;16.60;;
38130;SDS011;23947;51.894;4.622;2022-12-18T08:10:58;34.33;;;15.07;;
38130;SDS011;23947;51.894;4.622;2022-12-18T08:13:24;37.20;;;16.03;;
38130;SDS011;23947;51.894;4.622;2022-12-18T08:16:04;37.87;;;15.23;;
38130;SDS011;23947;51.894;4.622;2022-12-18T08:18:36;34.13;;;14.60;;
38130;SDS011;23947;51.894;4.622;2022-12-18T08:23:37;36.50;;;15.37;;
38130;SDS011;23947;51.894;4.622;2022-12-18T08:26:04;32.43;;;14.43;;
38130;SDS011;23947;51.894;4.622;2022-12-18T08:28:30;31.00;;;14.50;;
38130;SDS011;23947;51.894;4.622;2022-12-18T08:30:59;29.87;;;13.53;;
38130;SDS011;23947;51.894;4.622;2022-12-18T08:33:25;32.10;;;14.20;;
38130;SDS011;23947;51.894;4.622;2022-12-18T08:35:53;35.20;;;14.38;;
38130;SDS011;23947;51.894;4.622;2022-12-18T08:38:22;35.00;;;14.83;;
38130;SDS011;23947;51.894;4.622;2022-12-18T08:40:48;33.30;;;14.30;;
38130;SDS011;23947;51.894;4.622;2022-12-18T08:43:13;36.30;;;14.37;;
38130;SDS011;23947;51.894;4.622;2022-12-18T08:46:00;28.03;;;13.47;;
38130;SDS011;23947;51.894;4.622;2022-12-18T08:48:26;32.30;;;14.23;;
38130;SDS011;23947;51.894;4.622;2022-12-18T08:51:12;30.67;;;13.60;;
38130;SDS011;23947;51.894;4.622;2022-12-18T08:53:41;29.67;;;13.90;;
38130;SDS011;23947;51.894;4.622;2022-12-18T08:56:07;30.33;;;14.13;;
38130;SDS011;23947;51.894;4.622;2022-12-18T08:58:39;34.20;;;15.33;;
38130;SDS011;23947;51.894;4.622;2022-12-18T09:01:06;34.60;;;14.43;;
38130;SDS011;23947;51.894;4.622;2022-12-18T09:03:34;30.73;;;13.68;;
38130;SDS011;23947;51.894;4.622;2022-12-18T09:06:00;33.53;;;14.90;;
38130;SDS011;23947;51.894;4.622;2022-12-18T09:08:32;31.15;;;15.15;;
38130;SDS011;23947;51.894;4.622;2022-12-18T09:11:27;31.57;;;14.10;;
38130;SDS011;23947;51.894;4.622;2022-12-18T09:13:56;37.37;;;14.83;;
38130;SDS011;23947;51.894;4.622;2022-12-18T09:16:26;37.50;;;15.57;;
38130;SDS011;23947;51.894;4.622;2022-12-18T09:18:54;31.03;;;13.07;;
38130;SDS011;23947;51.894;4.622;2022-12-18T09:21:24;30.50;;;14.60;;
38130;SDS011;23947;51.894;4.622;2022-12-18T09:23:51;29.67;;;13.87;;
38130;SDS011;23947;51.894;4.622;2022-12-18T09:26:18;29.03;;;13.70;;
38130;SDS011;23947;51.894;4.622;2022-12-18T09:28:53;30.80;;;13.97;;
38130;SDS011;23947;51.894;4.622;2022-12-18T09:31:27;29.57;;;14.23;;
38130;SDS011;23947;51.894;4.622;2022-12-18T09:33:58;34.10;;;14.47;;
38130;SDS011;23947;51.894;4.622;2022-12-18T09:36:24;30.33;;;14.10;;
38130;SDS011;23947;51.894;4.622;2022-12-18T09:38:50;31.63;;;13.60;;
38130;SDS011;23947;51.894;4.622;2022-12-18T09:43:45;34.60;;;14.77;;
38130;SDS011;23947;51.894;4.622;2022-12-18T09:46:20;31.87;;;14.63;;
38130;SDS011;23947;51.894;4.622;2022-12-18T09:48:52;31.10;;;14.60;;
38130;SDS011;23947;51.894;4.622;2022-12-18T09:51:24;38.85;;;16.27;;
38130;SDS011;23947;51.894;4.622;2022-12-18T09:54:01;34.37;;;15.83;;
38130;SDS011;23947;51.894;4.622;2022-12-18T09:56:35;35.17;;;15.03;;
38130;SDS011;23947;51.894;4.622;2022-12-18T09:59:09;34.40;;;15.47;;
38130;SDS011;23947;51.894;4.622;2022-12-18T10:01:50;32.57;;;14.33;;
38130;SDS011;23947;51.894;4.622;2022-12-18T10:04:16;34.37;;;15.77;;
38130;SDS011;23947;51.894;4.622;2022-12-18T10:09:28;34.80;;;15.23;;
38130;SDS011;23947;51.894;4.622;2022-12-18T10:12:12;40.83;;;15.97;;
38130;SDS011;23947;51.894;4.622;2022-12-18T10:17:45;31.07;;;13.43;;
38130;SDS011;23947;51.894;4.622;2022-12-18T10:20:29;32.13;;;14.73;;
38130;SDS011;23947;51.894;4.622;2022-12-18T10:23:22;31.73;;;14.87;;
38130;SDS011;23947;51.894;4.622;2022-12-18T10:28:35;29.03;;;14.07;;
38130;SDS011;23947;51.894;4.622;2022-12-18T10:31:14;30.77;;;14.63;;
38130;SDS011;23947;51.894;4.622;2022-12-18T10:33:43;30.73;;;14.57;;
38130;SDS011;23947;51.894;4.622;2022-12-18T10:36:08;28.30;;;13.00;;
38130;SDS011;23947;51.894;4.622;2022-12-18T10:38:35;26.27;;;13.00;;
38130;SDS011;23947;51.894;4.622;2022-12-18T10:41:02;28.57;;;14.10;;
38130;SDS011;23947;51.894;4.622;2022-12-18T10:43:37;29.60;;;13.70;;
38130;SDS011;23947;51.894;4.622;2022-12-18T10:48:56;34.07;;;14.67;;
38130;SDS011;23947;51.894;4.622;2022-12-18T10:54:57;28.43;;;14.33;;
38130;SDS011;23947;51.894;4.622;2022-12-18T11:00:29;29.63;;;14.57;;
38130;SDS011;23947;51.894;4.622;2022-12-18T11:02:55;30.10;;;14.77;;
38130;SDS011;23947;51.894;4.622;2022-12-18T11:08:02;26.33;;;14.07;;
38130;SDS011;23947;51.894;4.622;2022-12-18T11:10:32;33.23;;;15.13;;
38130;SDS011;23947;51.894;4.622;2022-12-18T11:13:12;30.90;;;13.90;;
38130;SDS011;23947;51.894;4.622;2022-12-18T11:15:42;31.77;;;14.33;;
38130;SDS011;23947;51.894;4.622;2022-12-18T11:18:16;27.67;;;13.53;;
38130;SDS011;23947;51.894;4.622;2022-12-18T11:20:50;33.42;;;16.42;;
38130;SDS011;23947;51.894;4.622;2022-12-18T11:23:17;30.30;;;15.13;;
38130;SDS011;23947;51.894;4.622;2022-12-18T11:25:59;26.70;;;13.83;;
38130;SDS011;23947;51.894;4.622;2022-12-18T11:28:41;28.53;;;14.33;;
38130;SDS011;23947;51.894;4.622;2022-12-18T11:31:27;29.33;;;14.02;;
38130;SDS011;23947;51.894;4.622;2022-12-18T11:36:35;28.97;;;13.23;;
38130;SDS011;23947;51.894;4.622;2022-12-18T11:39:17;29.33;;;14.57;;
38130;SDS011;23947;51.894;4.622;2022-12-18T11:42:02;33.92;;;14.85;;
38130;SDS011;23947;51.894;4.622;2022-12-18T11:47:23;29.73;;;15.02;;
38130;SDS011;23947;51.894;4.622;2022-12-18T11:50:14;30.15;;;14.30;;
38130;SDS011;23947;51.894;4.622;2022-12-18T12:00:50;32.57;;;15.17;;
38130;SDS011;23947;51.894;4.622;2022-12-18T12:28:12;37.30;;;17.15;;
38130;SDS011;23947;51.894;4.622;2022-12-18T12:31:02;33.77;;;16.83;;
38130;SDS011;23947;51.894;4.622;2022-12-18T12:39:40;34.50;;;16.23;;
38130;SDS011;23947;51.894;4.622;2022-12-18T12:42:17;34.28;;;16.77;;
38130;SDS011;23947;51.894;4.622;2022-12-18T12:45:15;38.58;;;17.95;;
38130;SDS011;23947;51.894;4.622;2022-12-18T12:47:57;30.27;;;14.98;;
38130;SDS011;23947;51.894;4.622;2022-12-18T12:50:26;35.53;;;16.75;;
38130;SDS011;23947;51.894;4.622;2022-12-18T12:52:55;29.95;;;15.52;;
38130;SDS011;23947;51.894;4.622;2022-12-18T12:55:32;32.08;;;16.13;;
38130;SDS011;23947;51.894;4.622;2022-12-18T13:00:41;32.95;;;16.88;;
38130;SDS011;23947;51.894;4.622;2022-12-18T13:06:07;32.22;;;15.95;;
38130;SDS011;23947;51.894;4.622;2022-12-18T13:08:54;37.38;;;16.70;;
38130;SDS011;23947;51.894;4.622;2022-12-18T13:11:31;36.40;;;17.63;;
38130;SDS011;23947;51.894;4.622;2022-12-18T13:14:38;31.13;;;14.68;;
38130;SDS011;23947;51.894;4.622;2022-12-18T13:17:26;36.58;;;17.33;;
38130;SDS011;23947;51.894;4.622;2022-12-18T13:22:54;42.17;;;18.50;;
38130;SDS011;23947;51.894;4.622;2022-12-18T13:25:29;33.33;;;16.73;;
38130;SDS011;23947;51.894;4.622;2022-12-18T13:28:00;31.60;;;16.25;;
38130;SDS011;23947;51.894;4.622;2022-12-18T13:38:22;42.78;;;20.42;;
38130;SDS011;23947;51.894;4.622;2022-12-18T13:45:49;36.22;;;17.77;;
38130;SDS011;23947;51.894;4.622;2022-12-18T13:48:34;34.80;;;17.33;;
38130;SDS011;23947;51.894;4.622;2022-12-18T13:51:06;33.95;;;16.08;;
38130;SDS011;23947;51.894;4.622;2022-12-18T13:56:47;33.83;;;16.25;;
38130;SDS011;23947;51.894;4.622;2022-12-18T13:59:15;34.17;;;16.15;;
38130;SDS011;23947;51.894;4.622;2022-12-18T14:01:46;33.65;;;16.98;;
38130;SDS011;23947;51.894;4.622;2022-12-18T14:04:23;31.13;;;17.00;;
38130;SDS011;23947;51.894;4.622;2022-12-18T14:06:52;32.53;;;15.57;;
38130;SDS011;23947;51.894;4.622;2022-12-18T14:09:26;31.08;;;16.40;;
38130;SDS011;23947;51.894;4.622;2022-12-18T14:11:55;32.05;;;15.98;;
38130;SDS011;23947;51.894;4.622;2022-12-18T14:14:44;34.65;;;15.68;;
38130;SDS011;23947;51.894;4.622;2022-12-18T14:17:13;30.85;;;16.10;;
38130;SDS011;23947;51.894;4.622;2022-12-18T14:19:46;29.40;;;14.95;;
38130;SDS011;23947;51.894;4.622;2022-12-18T14:22:16;31.80;;;16.40;;
38130;SDS011;23947;51.894;4.622;2022-12-18T14:24:47;34.38;;;16.55;;
38130;SDS011;23947;51.894;4.622;2022-12-18T14:27:29;36.80;;;16.92;;
38130;SDS011;23947;51.894;4.622;2022-12-18T14:29:55;34.20;;;16.67;;
38130;SDS011;23947;51.894;4.622;2022-12-18T14:32:21;36.08;;;17.17;;
38130;SDS011;23947;51.894;4.622;2022-12-18T14:34:51;31.27;;;15.60;;
38130;SDS011;23947;51.894;4.622;2022-12-18T14:37:25;33.47;;;16.83;;
38130;SDS011;23947;51.894;4.622;2022-12-18T14:39:56;33.65;;;17.17;;
38130;SDS011;23947;51.894;4.622;2022-12-18T14:42:24;33.30;;;16.08;;
38130;SDS011;23947;51.894;4.622;2022-12-18T14:45:31;32.03;;;16.63;;
38130;SDS011;23947;51.894;4.622;2022-12-18T14:47:57;33.53;;;15.88;;
38130;SDS011;23947;51.894;4.622;2022-12-18T14:50:24;31.75;;;15.80;;
38130;SDS011;23947;51.894;4.622;2022-12-18T14:52:50;34.50;;;17.13;;
38130;SDS011;23947;51.894;4.622;2022-12-18T14:55:22;36.35;;;16.77;;
38130;SDS011;23947;51.894;4.622;2022-12-18T14:57:51;32.78;;;17.00;;
38130;SDS011;23947;51.894;4.622;2022-12-18T15:00:24;33.22;;;16.95;;
38130;SDS011;23947;51.894;4.622;2022-12-18T15:02:54;34.60;;;17.73;;
38130;SDS011;23947;51.894;4.622;2022-12-18T15:05:28;33.85;;;17.40;;
38130;SDS011;23947;51.894;4.622;2022-12-18T15:07:56;35.28;;;16.63;;
38130;SDS011;23947;51.894;4.622;2022-12-18T15:10:28;35.03;;;17.60;;
38130;SDS011;23947;51.894;4.622;2022-12-18T15:18:03;35.17;;;17.13;;
38130;SDS011;23947;51.894;4.622;2022-12-18T15:23:24;34.55;;;18.00;;
38130;SDS011;23947;51.894;4.622;2022-12-18T15:25:59;35.97;;;16.70;;
38130;SDS011;23947;51.894;4.622;2022-12-18T15:31:05;37.83;;;17.47;;
38130;SDS011;23947;51.894;4.622;2022-12-18T15:33:32;32.88;;;16.23;;
38130;SDS011;23947;51.894;4.622;2022-12-18T15:36:01;32.95;;;16.30;;
38130;SDS011;23947;51.894;4.622;2022-12-18T15:38:29;33.65;;;15.32;;
38130;SDS011;23947;51.894;4.622;2022-12-18T15:40:55;32.97;;;14.88;;
38130;SDS011;23947;51.894;4.622;2022-12-18T15:43:21;29.17;;;14.25;;
38130;SDS011;23947;51.894;4.622;2022-12-18T15:48:26;28.15;;;13.45;;
38130;SDS011;23947;51.894;4.622;2022-12-18T15:50:52;30.27;;;13.38;;
38130;SDS011;23947;51.894;4.622;2022-12-18T15:53:21;31.13;;;14.82;;
38130;SDS011;23947;51.894;4.622;2022-12-18T15:55:48;29.50;;;14.82;;
38130;SDS011;23947;51.894;4.622;2022-12-18T15:58:32;29.23;;;14.75;;
38130;SDS011;23947;51.894;4.622;2022-12-18T16:00:58;31.73;;;15.18;;
38130;SDS011;23947;51.894;4.622;2022-12-18T16:03:25;30.70;;;15.45;;
38130;SDS011;23947;51.894;4.622;2022-12-18T16:05:50;31.65;;;15.15;;
38130;SDS011;23947;51.894;4.622;2022-12-18T16:08:16;35.50;;;19.95;;
38130;SDS011;23947;51.894;4.622;2022-12-18T16:10:42;30.17;;;14.65;;
38130;SDS011;23947;51.894;4.622;2022-12-18T16:13:09;31.55;;;14.93;;
38130;SDS011;23947;51.894;4.622;2022-12-18T16:15:36;29.20;;;14.40;;
38130;SDS011;23947;51.894;4.622;2022-12-18T16:18:02;32.72;;;14.18;;
38130;SDS011;23947;51.894;4.622;2022-12-18T16:20:27;32.92;;;16.25;;
38130;SDS011;23947;51.894;4.622;2022-12-18T16:22:53;29.13;;;14.75;;
38130;SDS011;23947;51.894;4.622;2022-12-18T16:25:20;31.77;;;15.73;;
38130;SDS011;23947;51.894;4.622;2022-12-18T16:27:47;31.80;;;15.23;;
38130;SDS011;23947;51.894;4.622;2022-12-18T16:30:14;27.30;;;15.63;;
38130;SDS011;23947;51.894;4.622;2022-12-18T16:32:41;31.67;;;15.40;;
38130;SDS011;23947;51.894;4.622;2022-12-18T16:35:09;30.42;;;15.30;;
38130;SDS011;23947;51.894;4.622;2022-12-18T16:37:36;28.93;;;14.47;;
38130;SDS011;23947;51.894;4.622;2022-12-18T16:40:01;29.92;;;14.18;;
38130;SDS011;23947;51.894;4.622;2022-12-18T16:42:27;28.33;;;14.45;;
38130;SDS011;23947;51.894;4.622;2022-12-18T16:44:53;29.08;;;15.85;;
38130;SDS011;23947;51.894;4.622;2022-12-18T16:47:18;30.55;;;15.63;;
38130;SDS011;23947;51.894;4.622;2022-12-18T16:49:44;32.78;;;15.82;;
38130;SDS011;23947;51.894;4.622;2022-12-18T16:52:10;31.35;;;15.45;;
38130;SDS011;23947;51.894;4.622;2022-12-18T16:54:36;33.38;;;15.57;;
38130;SDS011;23947;51.894;4.622;2022-12-18T16:57:02;32.92;;;15.98;;
38130;SDS011;23947;51.894;4.622;2022-12-18T16:59:29;32.17;;;15.82;;
38130;SDS011;23947;51.894;4.622;2022-12-18T17:01:55;33.35;;;16.30;;